Time;durP1;ratioP1;P1;durP2;ratioP2;P2;SDS_P1;SDS_P2;PMS_P1;PMS_P2;Temp;Humidity;BMP_temperature;BMP_pressure;BME280_temperature;BME280_humidity;BME280_pressure;Samples;Min_cycle;Max_cycle;Signal;HPM_P1;HPM_P2
2022/09/28 00:01:43;;;;;;;1.60;0.70;;;19.10;92.10;;;;;;5011635;28;20458;-63
2022/09/28 00:04:11;;;;;;;1.20;1.10;;;19.10;92.40;;;;;;5014564;28;20564;-63
2022/09/28 00:06:38;;;;;;;0.87;0.63;;;19.10;92.40;;;;;;5014767;28;20520;-63
2022/09/28 00:09:06;;;;;;;0.73;0.63;;;19.10;92.10;;;;;;5014745;28;20462;-63
2022/09/28 00:11:33;;;;;;;0.93;0.70;;;19.10;92.10;;;;;;5014593;28;20438;-63
2022/09/28 00:14:02;;;;;;;0.60;0.60;;;19.10;92.10;;;;;;5014020;28;20537;-63
2022/09/28 00:16:31;;;;;;;0.60;0.60;;;19.10;92.10;;;;;;5014687;28;20805;-63
2022/09/28 00:18:58;;;;;;;0.80;0.60;;;19.10;92.10;;;;;;5014492;28;20565;-63
2022/09/28 00:21:27;;;;;;;0.90;0.90;;;19.10;92.10;;;;;;5014320;28;20454;-63
2022/09/28 00:24:13;;;;;;;0.90;0.90;;;19.10;92.10;;;;;;5014433;28;20549;-63
2022/09/28 00:26:45;;;;;;;0.63;0.63;;;19.10;92.10;;;;;;5014189;28;20823;-63
2022/09/28 00:29:20;;;;;;;0.57;0.57;;;19.10;92.10;;;;;;5014188;28;20467;-63
2022/09/28 00:31:48;;;;;;;0.70;0.70;;;19.10;92.10;;;;;;5014123;28;20459;-63
2022/09/28 00:34:16;;;;;;;1.63;0.70;;;19.00;92.10;;;;;;5014151;28;20442;-63
2022/09/28 00:36:45;;;;;;;0.60;0.60;;;19.00;92.10;;;;;;5014338;28;20458;-63
2022/09/28 00:39:13;;;;;;;0.60;0.60;;;19.00;92.10;;;;;;5057747;22;20490;-69
2022/09/28 00:41:40;;;;;;;0.60;0.60;;;19.00;92.10;;;;;;5025458;28;20441;-69
2022/09/28 00:44:37;;;;;;;0.60;0.60;;;19.00;92.10;;;;;;5033923;28;20491;-69
2022/09/28 00:47:20;;;;;;;0.47;0.47;;;19.00;92.20;;;;;;5033824;28;20449;-68
2022/09/28 00:49:51;;;;;;;0.53;0.53;;;19.00;92.10;;;;;;5023435;28;20806;-69
2022/09/28 00:52:23;;;;;;;0.60;0.60;;;19.00;92.20;;;;;;5014092;28;20447;-69
2022/09/28 00:54:52;;;;;;;0.60;0.60;;;19.00;92.20;;;;;;5014149;28;20454;-69
2022/09/28 00:57:20;;;;;;;0.70;0.70;;;19.00;92.20;;;;;;5013618;28;20443;-68
2022/09/28 00:59:49;;;;;;;0.57;0.57;;;19.00;92.20;;;;;;5013741;28;20995;-69
2022/09/28 01:02:16;;;;;;;0.57;0.57;;;18.90;92.10;;;;;;5013768;28;20446;-69
2022/09/28 01:04:43;;;;;;;0.80;0.80;;;19.00;92.10;;;;;;5013619;28;20492;-68
2022/09/28 01:07:11;;;;;;;0.50;0.50;;;19.00;92.10;;;;;;5013386;28;20533;-69
2022/09/28 01:09:39;;;;;;;0.50;0.50;;;18.90;92.00;;;;;;5013474;28;20470;-68
2022/09/28 01:12:06;;;;;;;0.70;0.70;;;18.90;92.10;;;;;;5012905;28;20962;-69
2022/09/28 01:14:34;;;;;;;0.57;0.57;;;18.90;92.10;;;;;;5013521;28;20472;-69
2022/09/28 01:17:08;;;;;;;0.70;0.70;;;18.90;92.10;;;;;;5013229;28;20446;-69
2022/09/28 01:20:06;;;;;;;0.60;0.60;;;18.90;92.00;;;;;;5013363;28;20470;-70
2022/09/28 01:22:58;;;;;;;1.20;0.67;;;18.90;92.10;;;;;;5013090;28;20537;-70
2022/09/28 01:25:39;;;;;;;0.50;0.50;;;18.90;92.00;;;;;;5013072;28;20987;-70
2022/09/28 01:28:12;;;;;;;0.60;0.60;;;18.90;92.10;;;;;;5013343;28;20447;-69
2022/09/28 01:30:45;;;;;;;0.90;0.70;;;18.90;92.10;;;;;;5013331;28;20452;-69
2022/09/28 01:33:15;;;;;;;0.50;0.50;;;18.90;92.10;;;;;;5013225;28;20541;-69
2022/09/28 01:35:49;;;;;;;0.70;0.70;;;18.90;92.20;;;;;;5013109;28;20465;-69
2022/09/28 01:38:21;;;;;;;0.60;0.60;;;18.90;92.20;;;;;;5012693;28;20569;-68
2022/09/28 01:40:49;;;;;;;0.50;0.50;;;18.80;92.10;;;;;;5013046;28;20461;-68
2022/09/28 01:43:20;;;;;;;0.60;0.60;;;18.90;92.20;;;;;;5012648;28;20534;-69
2022/09/28 01:45:51;;;;;;;0.60;0.60;;;18.90;92.20;;;;;;5012784;28;20490;-68
2022/09/28 01:48:22;;;;;;;0.67;0.67;;;18.80;92.20;;;;;;5012374;28;20501;-68
2022/09/28 01:50:53;;;;;;;0.60;0.60;;;18.80;92.20;;;;;;5012881;28;20450;-68
2022/09/28 01:53:25;;;;;;;0.50;0.50;;;18.80;92.10;;;;;;5012723;28;20546;-68
2022/09/28 01:55:57;;;;;;;0.50;0.50;;;18.80;92.10;;;;;;5012656;28;20956;-68
2022/09/28 01:58:30;;;;;;;0.87;0.40;;;18.80;92.10;;;;;;4993084;28;20838;-69
2022/09/28 02:01:02;;;;;;;0.50;0.50;;;18.80;92.10;;;;;;4993120;28;20458;-68
2022/09/28 02:03:32;;;;;;;0.70;0.70;;;18.80;92.20;;;;;;4992798;28;20447;-68
2022/09/28 02:06:05;;;;;;;0.60;0.60;;;18.80;92.20;;;;;;4993013;28;20482;-69
2022/09/28 02:08:36;;;;;;;0.70;0.70;;;18.80;92.20;;;;;;4996993;28;20462;-68
2022/09/28 02:11:09;;;;;;;0.50;0.50;;;18.80;92.10;;;;;;5012589;28;20452;-67
2022/09/28 02:13:40;;;;;;;0.53;0.53;;;18.80;92.20;;;;;;5012392;28;20889;-68
2022/09/28 02:16:13;;;;;;;2.13;0.60;;;18.80;92.20;;;;;;5012432;28;20445;-68
2022/09/28 02:18:41;;;;;;;0.60;0.60;;;18.80;92.20;;;;;;5012079;28;20999;-68
2022/09/28 02:21:14;;;;;;;0.63;0.63;;;18.80;92.20;;;;;;5012355;28;20450;-68
2022/09/28 02:23:50;;;;;;;0.50;0.50;;;18.80;92.20;;;;;;5011800;28;20452;-68
2022/09/28 02:26:22;;;;;;;0.40;0.40;;;18.70;92.10;;;;;;5012095;28;20484;-69
2022/09/28 02:28:50;;;;;;;0.50;0.50;;;18.70;92.20;;;;;;5011800;28;20480;-68
2022/09/28 02:31:17;;;;;;;0.50;0.50;;;18.70;92.10;;;;;;5012047;28;20442;-68
2022/09/28 02:33:46;;;;;;;0.93;0.93;;;18.70;92.20;;;;;;5012132;28;20450;-68
2022/09/28 02:36:13;;;;;;;0.57;0.57;;;18.70;92.20;;;;;;5012171;28;21076;-69
2022/09/28 02:38:40;;;;;;;0.50;0.50;;;18.70;92.20;;;;;;5011658;28;20480;-68
2022/09/28 02:41:18;;;;;;;0.53;0.50;;;18.70;92.20;;;;;;5012387;28;20442;-68
2022/09/28 02:43:57;;;;;;;0.50;0.50;;;18.70;92.20;;;;;;5012064;28;20808;-68
2022/09/28 02:46:32;;;;;;;0.60;0.60;;;18.70;92.20;;;;;;5012017;28;21017;-68
2022/09/28 02:49:12;;;;;;;0.87;0.70;;;18.70;92.30;;;;;;5011988;28;20470;-69
2022/09/28 02:51:48;;;;;;;0.63;0.63;;;18.70;92.30;;;;;;5011588;28;20737;-68
2022/09/28 02:54:48;;;;;;;0.50;0.50;;;18.60;92.20;;;;;;5011871;28;20988;-69
2022/09/28 02:57:27;;;;;;;0.70;0.67;;;18.60;92.30;;;;;;5011990;28;20449;-68
2022/09/28 03:00:04;;;;;;;0.80;0.60;;;18.60;92.30;;;;;;5011796;28;21049;-68
2022/09/28 03:02:36;;;;;;;0.60;0.60;;;18.60;92.30;;;;;;5011501;28;20449;-68
2022/09/28 03:05:12;;;;;;;0.70;0.70;;;18.60;92.30;;;;;;5011750;28;21022;-69
2022/09/28 03:07:45;;;;;;;0.50;0.50;;;18.60;92.40;;;;;;5011889;28;20456;-68
2022/09/28 03:10:17;;;;;;;0.50;0.50;;;18.60;92.70;;;;;;5011747;28;20462;-67
2022/09/28 03:12:47;;;;;;;0.57;0.57;;;18.60;92.40;;;;;;5011287;28;20470;-69
2022/09/28 03:15:22;;;;;;;0.50;0.50;;;18.60;92.40;;;;;;5011810;28;20438;-69
2022/09/28 03:17:49;;;;;;;0.70;0.70;;;18.60;92.40;;;;;;5011672;28;20445;-68
2022/09/28 03:20:16;;;;;;;0.70;0.70;;;18.60;92.40;;;;;;5011510;28;20814;-69
2022/09/28 03:22:44;;;;;;;0.47;0.47;;;18.60;92.40;;;;;;5011480;28;20644;-68
2022/09/28 03:25:11;;;;;;;0.60;0.60;;;18.60;92.40;;;;;;5011465;28;20528;-68
2022/09/28 03:27:38;;;;;;;0.70;0.70;;;18.50;92.40;;;;;;5011585;28;20482;-68
2022/09/28 03:30:05;;;;;;;0.50;0.50;;;18.60;92.50;;;;;;5011249;28;20489;-68
2022/09/28 03:32:34;;;;;;;0.60;0.60;;;18.50;92.40;;;;;;5011375;28;20935;-68
2022/09/28 03:35:00;;;;;;;0.60;0.60;;;18.50;92.80;;;;;;5011818;28;20474;-69
2022/09/28 03:37:28;;;;;;;0.83;0.50;;;18.50;92.50;;;;;;5015363;28;20904;-68
2022/09/28 03:39:55;;;;;;;0.60;0.60;;;18.50;92.50;;;;;;5015250;28;20909;-68
2022/09/28 03:42:22;;;;;;;0.80;0.53;;;18.50;92.50;;;;;;5014557;28;20456;-68
2022/09/28 03:44:49;;;;;;;0.60;0.60;;;18.50;92.50;;;;;;5014997;28;20894;-69
2022/09/28 03:47:16;;;;;;;0.50;0.50;;;18.50;92.50;;;;;;5015120;28;20532;-68
2022/09/28 03:49:45;;;;;;;0.60;0.60;;;18.50;92.50;;;;;;5014772;28;21014;-68
2022/09/28 03:52:13;;;;;;;0.50;0.50;;;18.50;92.50;;;;;;5014900;28;20797;-68
2022/09/28 03:54:40;;;;;;;0.60;0.57;;;18.50;92.80;;;;;;5014990;28;20449;-68
2022/09/28 03:57:07;;;;;;;0.40;0.40;;;18.50;92.50;;;;;;5015040;28;20456;-69
2022/09/28 03:59:36;;;;;;;0.50;0.50;;;18.50;92.50;;;;;;5014567;28;20560;-68
2022/09/28 04:02:04;;;;;;;0.60;0.60;;;18.50;92.80;;;;;;5014743;28;20484;-68
2022/09/28 04:04:31;;;;;;;0.60;0.60;;;18.50;92.50;;;;;;5015090;28;20446;-69
2022/09/28 04:06:59;;;;;;;1.90;0.80;;;18.50;92.50;;;;;;5014718;28;20513;-69
2022/09/28 04:09:26;;;;;;;0.93;0.57;;;18.40;92.50;;;;;;5014336;28;20501;-67
2022/09/28 04:11:52;;;;;;;0.57;0.57;;;18.50;92.50;;;;;;5014568;28;20454;-68
2022/09/28 04:14:19;;;;;;;0.70;0.70;;;18.40;92.50;;;;;;5014671;28;20452;-69
2022/09/28 04:16:47;;;;;;;0.67;0.67;;;18.40;92.50;;;;;;5014350;28;20800;-67
2022/09/28 04:19:14;;;;;;;0.60;0.60;;;18.40;92.50;;;;;;5014367;28;20684;-69
2022/09/28 04:21:41;;;;;;;0.50;0.50;;;18.40;92.50;;;;;;5014322;28;20449;-69
2022/09/28 04:24:10;;;;;;;0.60;0.60;;;18.40;92.50;;;;;;5014459;28;20819;-68
2022/09/28 04:26:37;;;;;;;0.67;0.67;;;18.40;92.50;;;;;;5014180;28;20846;-68
2022/09/28 04:29:15;;;;;;;0.60;0.60;;;18.40;92.50;;;;;;5014449;28;20498;-69
2022/09/28 04:31:44;;;;;;;0.80;0.80;;;18.40;92.50;;;;;;5014225;28;20448;-69
2022/09/28 04:34:12;;;;;;;0.70;0.70;;;18.40;92.80;;;;;;5014233;28;20445;-67
2022/09/28 04:36:39;;;;;;;0.67;0.67;;;18.40;92.60;;;;;;5014302;28;20442;-68
2022/09/28 04:39:06;;;;;;;0.60;0.60;;;18.40;92.60;;;;;;5013551;28;20480;-69
2022/09/28 04:41:34;;;;;;;0.70;0.70;;;18.40;92.60;;;;;;5013943;28;20558;-68
2022/09/28 04:44:01;;;;;;;0.73;0.73;;;18.40;92.60;;;;;;5014066;28;20476;-69
2022/09/28 04:46:28;;;;;;;0.60;0.60;;;18.40;92.60;;;;;;5013849;28;20488;-68
2022/09/28 04:48:55;;;;;;;0.70;0.70;;;18.40;92.60;;;;;;5013229;28;20975;-68
2022/09/28 04:51:22;;;;;;;0.90;0.90;;;18.40;92.60;;;;;;5013504;28;20537;-68
2022/09/28 04:53:49;;;;;;;0.60;0.60;;;18.40;92.60;;;;;;5013722;28;20557;-69
2022/09/28 04:56:17;;;;;;;2.47;0.70;;;18.40;92.60;;;;;;5013729;28;20438;-68
2022/09/28 04:58:45;;;;;;;1.10;0.70;;;18.40;92.60;;;;;;5013880;28;20466;-68
2022/09/28 05:01:15;;;;;;;0.60;0.60;;;18.40;92.60;;;;;;5013639;28;20446;-68
2022/09/28 05:03:42;;;;;;;0.73;0.73;;;18.40;92.70;;;;;;5013443;28;20445;-68
2022/09/28 05:06:12;;;;;;;0.60;0.60;;;18.30;92.60;;;;;;5013638;28;20477;-69
2022/09/28 05:08:39;;;;;;;0.50;0.50;;;18.30;92.60;;;;;;5013533;28;20553;-69
2022/09/28 05:11:08;;;;;;;0.70;0.70;;;18.30;92.60;;;;;;5013646;28;20973;-68
2022/09/28 05:13:40;;;;;;;0.70;0.70;;;18.40;92.70;;;;;;5013569;28;20799;-69
2022/09/28 05:16:09;;;;;;;0.83;0.83;;;18.30;92.70;;;;;;5013245;28;20442;-68
2022/09/28 05:18:36;;;;;;;0.67;0.67;;;18.30;92.70;;;;;;5013513;28;20831;-67
2022/09/28 05:21:03;;;;;;;0.90;0.87;;;18.30;92.70;;;;;;5013717;28;20442;-68
2022/09/28 05:23:30;;;;;;;2.87;1.00;;;18.30;92.80;;;;;;5013448;28;20789;-68
2022/09/28 05:26:01;;;;;;;1.57;1.00;;;18.30;92.80;;;;;;5013388;28;20489;-69
2022/09/28 05:28:31;;;;;;;2.10;1.30;;;18.30;93.20;;;;;;5012968;28;20549;-68
2022/09/28 05:30:59;;;;;;;3.47;1.97;;;18.40;93.90;;;;;;5013181;28;20485;-69
2022/09/28 05:33:28;;;;;;;4.10;2.27;;;18.30;95.00;;;;;;5012075;28;20453;-67
2022/09/28 05:35:55;;;;;;;2.97;1.57;;;18.30;95.70;;;;;;5011555;28;20438;-62
2022/09/28 16:52:11;;;;;;;0.60;0.60;;;18.60;97.50;;;;;;5110432;27;20556;-62
2022/09/28 16:57:22;;;;;;;0.70;0.70;;;18.60;97.20;;;;;;5111275;28;20413;-62
2022/09/28 16:59:49;;;;;;;0.80;0.80;;;18.60;97.00;;;;;;5122306;22;20577;-62
2022/09/28 17:02:18;;;;;;;0.73;0.73;;;18.70;97.70;;;;;;5054087;28;20536;-61
2022/09/28 17:04:45;;;;;;;0.97;0.60;;;18.70;98.30;;;;;;5050466;28;20433;-63
2022/09/28 17:07:15;;;;;;;0.87;0.87;;;18.80;97.40;;;;;;5049716;28;20524;-62
2022/09/28 17:09:43;;;;;;;1.27;0.80;;;18.80;97.00;;;;;;5058600;28;20498;-64
2022/09/28 17:12:16;;;;;;;1.27;0.57;;;18.90;97.50;;;;;;5076465;28;20534;-65
2022/09/28 17:14:44;;;;;;;1.37;0.80;;;18.90;97.20;;;;;;5079661;28;20443;-63
2022/09/28 17:17:11;;;;;;;0.57;0.57;;;19.00;97.50;;;;;;5069434;28;20462;-64
2022/09/28 17:19:38;;;;;;;0.80;0.80;;;19.10;97.80;;;;;;5069439;28;20948;-66
2022/09/28 17:22:06;;;;;;;0.80;0.80;;;19.20;97.80;;;;;;5073405;28;20439;-64
2022/09/28 17:24:35;;;;;;;3.40;0.87;;;19.30;97.40;;;;;;5089543;28;20825;-66
2022/09/28 17:27:03;;;;;;;0.83;0.70;;;19.40;97.20;;;;;;5089450;28;20858;-65
2022/09/28 17:29:31;;;;;;;0.60;0.60;;;19.40;97.30;;;;;;5089478;28;20532;-68
2022/09/28 17:31:58;;;;;;;0.90;0.60;;;19.50;97.00;;;;;;5085489;28;20533;-65
2022/09/28 17:34:25;;;;;;;1.13;1.00;;;19.50;96.80;;;;;;5068902;28;20507;-64
2022/09/28 17:36:52;;;;;;;1.33;1.03;;;19.50;96.00;;;;;;5069305;28;20444;-61
2022/09/28 17:39:20;;;;;;;1.07;0.70;;;19.30;95.80;;;;;;5068777;28;20478;-66
2022/09/28 17:41:48;;;;;;;1.10;0.60;;;19.30;96.80;;;;;;5070020;28;20444;-64
2022/09/28 17:44:15;;;;;;;0.70;0.70;;;19.30;96.90;;;;;;5088770;28;20529;-63
2022/09/28 17:46:46;;;;;;;2.00;0.80;;;19.30;96.90;;;;;;5089035;28;20942;-63
2022/09/28 17:49:13;;;;;;;0.60;0.60;;;19.30;96.70;;;;;;5089018;28;20485;-63
2022/09/28 17:51:40;;;;;;;0.77;0.60;;;19.30;96.80;;;;;;5087747;28;20915;-62
2022/09/28 17:54:09;;;;;;;1.03;0.73;;;19.30;96.80;;;;;;5084845;28;20563;-67
2022/09/28 17:56:36;;;;;;;0.80;0.80;;;19.40;97.90;;;;;;5071278;28;20486;-64
2022/09/28 17:59:06;;;;;;;0.67;0.67;;;19.40;97.40;;;;;;5068637;28;20559;-63
2022/09/28 18:01:37;;;;;;;2.20;1.08;;;19.40;96.90;;;;;;5066448;28;20943;-65
2022/09/28 18:04:06;;;;;;;1.13;0.80;;;19.30;97.10;;;;;;5075930;28;20201;-66
2022/09/28 18:06:35;;;;;;;1.40;0.70;;;19.40;97.20;;;;;;5076626;28;20442;-65
2022/09/28 18:09:04;;;;;;;23.05;5.70;;;19.40;97.40;;;;;;5075928;28;20438;-63
2022/09/28 18:11:34;;;;;;;3.53;2.53;;;19.40;96.90;;;;;;5071125;28;20450;-64
2022/09/28 18:14:01;;;;;;;4.00;2.90;;;19.40;96.70;;;;;;5060459;28;20456;-61
2022/09/28 18:16:29;;;;;;;6.70;3.00;;;19.40;96.60;;;;;;5058995;28;20521;-63
2022/09/28 18:18:58;;;;;;;4.67;2.67;;;19.40;97.20;;;;;;5059402;28;20487;-64
2022/09/28 18:21:26;;;;;;;5.65;2.70;;;19.40;97.10;;;;;;5070958;28;20443;-62
2022/09/28 18:23:52;;;;;;;5.17;3.77;;;19.40;97.30;;;;;;5065392;28;20202;-68
2022/09/28 18:26:19;;;;;;;4.30;2.50;;;19.40;97.30;;;;;;5063593;28;20479;-66
2022/09/28 18:28:46;;;;;;;3.30;2.40;;;19.40;97.30;;;;;;5060489;28;20510;-67
2022/09/28 18:31:17;;;;;;;6.75;3.90;;;19.30;97.50;;;;;;5065250;28;20448;-67
2022/09/28 18:34:00;;;;;;;3.50;3.17;;;19.40;97.30;;;;;;5104471;27;20550;-64
2022/09/28 18:36:29;;;;;;;5.03;2.60;;;19.50;97.00;;;;;;5091558;28;20438;-61
2022/09/28 18:38:57;;;;;;;4.73;2.80;;;19.40;97.10;;;;;;5089301;28;20436;-61
2022/09/28 18:41:24;;;;;;;6.17;2.40;;;19.40;97.20;;;;;;5089390;28;20439;-63
2022/09/28 18:43:51;;;;;;;6.17;2.87;;;19.40;97.40;;;;;;5088734;28;20470;-62
2022/09/28 18:46:18;;;;;;;4.40;2.73;;;19.40;97.20;;;;;;5085370;22;20481;-66
2022/09/28 18:48:46;;;;;;;5.80;2.60;;;19.40;97.20;;;;;;5048530;28;20906;-63
2022/09/28 18:51:14;;;;;;;3.60;2.83;;;19.40;97.30;;;;;;5048700;28;20544;-63
2022/09/28 18:53:41;;;;;;;2.77;1.80;;;19.40;97.30;;;;;;5048597;28;20476;-63
2022/09/28 18:56:09;;;;;;;4.90;2.53;;;19.30;97.40;;;;;;5048930;28;20477;-63
2022/09/28 18:58:36;;;;;;;5.67;3.40;;;19.30;97.40;;;;;;5048836;28;20445;-63
2022/09/28 19:01:08;;;;;;;2.80;1.90;;;19.30;97.80;;;;;;5048865;28;20816;-65
2022/09/28 19:03:34;;;;;;;3.00;2.70;;;19.30;97.80;;;;;;5048328;28;20432;-65
2022/09/28 19:06:02;;;;;;;4.73;2.20;;;19.40;98.20;;;;;;5048807;28;20221;-62
2022/09/28 19:08:30;;;;;;;2.57;2.37;;;19.40;97.80;;;;;;5048788;28;20808;-64
2022/09/28 19:11:08;;;;;;;2.93;2.60;;;19.40;97.80;;;;;;5048619;28;20523;-64
2022/09/28 19:13:35;;;;;;;2.70;1.93;;;19.40;98.00;;;;;;5048180;28;20479;-65
2022/09/28 19:16:07;;;;;;;3.80;2.40;;;19.40;98.60;;;;;;5048533;28;20981;-65
2022/09/28 19:18:35;;;;;;;5.40;2.20;;;19.50;98.20;;;;;;5048613;28;20442;-65
2022/09/28 19:21:03;;;;;;;3.40;2.40;;;19.40;98.00;;;;;;5048700;28;20475;-67
2022/09/28 19:23:31;;;;;;;4.33;2.10;;;19.40;98.10;;;;;;5047547;28;20883;-66
2022/09/28 19:26:02;;;;;;;1.77;1.67;;;19.40;98.40;;;;;;5048365;28;20515;-67
2022/09/28 19:28:29;;;;;;;5.57;2.40;;;19.40;98.60;;;;;;5048434;28;20459;-66
2022/09/28 19:30:56;;;;;;;2.20;1.63;;;19.50;98.40;;;;;;5048623;28;21008;-65
2022/09/28 19:33:23;;;;;;;1.80;1.57;;;19.50;98.40;;;;;;5047861;28;20512;-66
2022/09/28 19:35:58;;;;;;;1.93;1.83;;;19.50;98.30;;;;;;5048172;28;20461;-66
2022/09/28 19:38:25;;;;;;;3.80;1.73;;;19.60;98.90;;;;;;5048123;28;20523;-66
2022/09/28 19:40:53;;;;;;;2.43;1.37;;;19.60;98.70;;;;;;5048071;28;20448;-67
2022/09/28 19:43:20;;;;;;;1.40;1.30;;;19.70;98.90;;;;;;5045153;28;20446;-67
2022/09/28 19:45:50;;;;;;;3.83;2.07;;;19.70;98.70;;;;;;5034665;28;20790;-69
2022/09/28 19:48:18;;;;;;;2.03;1.70;;;19.80;98.70;;;;;;5035167;28;20460;-64
2022/09/28 19:50:45;;;;;;;2.30;2.20;;;19.80;99.10;;;;;;5034837;28;20938;-64
2022/09/28 19:53:12;;;;;;;2.13;1.90;;;19.80;98.50;;;;;;5033926;28;21002;-64
2022/09/28 19:55:39;;;;;;;2.03;1.83;;;19.90;98.20;;;;;;5033910;28;20475;-64
2022/09/28 19:58:08;;;;;;;1.67;1.57;;;19.80;98.10;;;;;;5034447;28;20445;-63
2022/09/28 20:00:36;;;;;;;2.90;1.43;;;19.90;98.00;;;;;;5034210;28;20496;-62
2022/09/28 20:03:03;;;;;;;1.80;1.70;;;19.90;97.90;;;;;;5033778;28;20540;-64
2022/09/28 20:05:30;;;;;;;1.60;1.50;;;19.90;97.70;;;;;;5034015;28;20556;-63
2022/09/28 20:07:57;;;;;;;1.20;1.20;;;19.90;97.60;;;;;;5034101;28;20540;-63
2022/09/28 20:10:24;;;;;;;1.67;1.57;;;19.90;97.60;;;;;;5034059;28;20445;-62
2022/09/28 20:12:51;;;;;;;1.60;1.50;;;19.90;97.50;;;;;;5033521;28;20481;-62
2022/09/28 20:15:21;;;;;;;1.57;1.47;;;19.90;97.50;;;;;;5033271;28;20508;-62
2022/09/28 20:17:47;;;;;;;1.73;1.63;;;19.90;97.40;;;;;;5033900;28;20457;-64
2022/09/28 20:20:15;;;;;;;1.60;1.20;;;19.90;97.30;;;;;;5033935;28;20542;-62
2022/09/28 20:22:42;;;;;;;2.43;1.70;;;19.90;97.20;;;;;;5033598;28;20521;-63
2022/09/28 20:25:09;;;;;;;1.53;1.43;;;19.90;97.30;;;;;;5033400;28;20465;-62
2022/09/28 20:27:37;;;;;;;1.60;1.47;;;19.90;97.20;;;;;;5033865;28;20472;-63
2022/09/28 20:30:05;;;;;;;4.93;2.03;;;20.00;97.40;;;;;;5034086;28;20450;-61
2022/09/28 20:32:35;;;;;;;2.50;1.30;;;19.90;97.40;;;;;;5033661;28;20604;-61
2022/09/28 20:35:01;;;;;;;1.40;1.30;;;20.00;97.40;;;;;;5033487;28;20465;-60
2022/09/28 20:37:29;;;;;;;2.00;1.60;;;20.00;97.40;;;;;;5033808;28;20534;-57
2022/09/28 20:39:56;;;;;;;1.40;1.30;;;20.00;97.30;;;;;;5033974;28;20860;-60
2022/09/28 20:42:24;;;;;;;1.33;1.23;;;20.00;97.30;;;;;;5033312;28;20457;-61
2022/09/28 20:44:50;;;;;;;1.20;1.20;;;20.00;97.10;;;;;;5033100;28;20446;-59
2022/09/28 20:47:17;;;;;;;1.53;1.43;;;20.00;97.00;;;;;;5013665;28;20553;-61
2022/09/28 20:49:46;;;;;;;1.40;1.30;;;20.00;96.90;;;;;;5013736;28;20872;-61
